createdAt,value
2022-09-12T00:07:54.105Z,42.75
2022-09-12T00:12:56.766Z,44.30
2022-09-12T00:17:59.184Z,44.17
2022-09-12T00:23:04.582Z,43.30
2022-09-12T00:28:06.948Z,40.92
2022-09-12T00:33:09.719Z,41.65
2022-09-12T00:38:13.854Z,40.73
2022-09-12T00:43:16.812Z,39.22
2022-09-12T00:48:23.208Z,45.00
2022-09-12T00:53:27.074Z,45.58
2022-09-12T00:58:31.030Z,47.13
2022-09-12T01:03:33.523Z,46.28
2022-09-12T01:08:38.206Z,47.33
2022-09-12T01:13:40.720Z,43.72
2022-09-12T01:18:49.802Z,46.03
2022-09-12T01:24:07.944Z,42.75
2022-09-12T01:29:16.696Z,44.53
2022-09-12T01:34:26.260Z,45.50
2022-09-12T01:39:31.187Z,48.17
2022-09-12T01:44:37.571Z,45.55
2022-09-12T01:49:47.203Z,46.45
2022-09-12T01:54:52.562Z,43.97
2022-09-12T01:59:57.481Z,42.15
2022-09-12T02:05:05.778Z,42.85
2022-09-12T02:10:10.772Z,41.03
2022-09-12T02:15:14.869Z,42.97
2022-09-12T02:20:44.029Z,46.92
2022-09-12T02:25:44.614Z,44.05
2022-09-12T02:30:51.725Z,47.78
2022-09-12T02:35:59.099Z,48.47
2022-09-12T02:41:02.632Z,44.35
2022-09-12T02:46:06.616Z,44.15
2022-09-12T02:51:10.527Z,42.13
2022-09-12T02:56:17.848Z,39.45
2022-09-12T03:01:25.514Z,38.97
2022-09-12T03:06:32.451Z,37.70
2022-09-12T03:11:43.220Z,37.22
2022-09-12T03:16:48.828Z,46.55
2022-09-12T03:21:57.726Z,46.28
2022-09-12T03:27:05.392Z,41.45
2022-09-12T03:32:08.196Z,58.25
2022-09-12T03:37:11.993Z,62.00
2022-09-12T03:42:14.366Z,52.58
2022-09-12T03:47:16.745Z,70.35
2022-09-12T03:52:20.693Z,70.75
2022-09-12T03:57:23.094Z,70.88
2022-09-12T04:02:25.540Z,71.68
2022-09-12T04:07:29.339Z,73.50
2022-09-12T04:12:31.730Z,69.80
2022-09-12T04:17:34.542Z,65.65
2022-09-12T04:22:38.250Z,70.05
2022-09-12T04:27:42.131Z,68.45
2022-09-12T04:32:45.793Z,68.10
2022-09-12T04:37:49.542Z,64.38
2022-09-12T04:42:51.937Z,65.78
2022-09-12T04:47:54.435Z,68.22
2022-09-12T04:52:58.163Z,68.07
2022-09-12T04:58:01.527Z,68.90
2022-09-12T05:03:03.973Z,70.57
2022-09-12T05:08:08.357Z,69.22
2022-09-12T05:13:10.817Z,72.20
2022-09-12T05:18:13.187Z,69.72
2022-09-12T05:23:16.975Z,69.57
2022-09-12T05:28:19.570Z,66.63
2022-09-12T05:33:25.498Z,64.73
2022-09-12T05:38:29.446Z,61.10
2022-09-12T05:43:33.228Z,58.08
2022-09-12T05:48:37.011Z,51.47
2022-09-12T05:53:41.488Z,53.72
2022-09-12T05:58:45.842Z,49.15
2022-09-12T06:03:49.337Z,45.92
2022-09-12T06:13:56.267Z,42.85
2022-09-12T06:18:59.366Z,41.67
2022-09-12T06:24:01.965Z,37.22
2022-09-12T06:29:05.782Z,39.17
2022-09-12T06:34:09.000Z,36.85
2022-09-12T06:39:12.573Z,36.60
2022-09-12T06:44:16.961Z,34.78
2022-09-12T06:49:19.348Z,34.47
2022-09-12T06:54:22.349Z,33.80
2022-09-12T06:59:26.246Z,33.35
2022-09-12T07:04:29.047Z,34.15
2022-09-12T07:09:32.035Z,34.70
2022-09-12T07:14:36.828Z,33.88
2022-09-12T07:19:39.271Z,33.20
2022-09-12T07:24:42.092Z,33.63
2022-09-12T07:29:46.819Z,33.28
2022-09-12T07:34:49.919Z,31.08
2022-09-12T07:44:56.392Z,25.58
2022-09-12T07:49:59.055Z,23.92
2022-09-12T07:55:01.505Z,21.65
2022-09-12T08:00:06.370Z,23.52
2022-09-12T08:05:09.095Z,21.92
2022-09-12T08:10:11.519Z,21.25
2022-09-12T08:15:15.807Z,22.05
2022-09-12T08:20:18.587Z,22.00
2022-09-12T08:25:20.973Z,20.83
2022-09-12T08:30:24.807Z,20.70
2022-09-12T08:35:28.205Z,19.80
2022-09-12T08:40:30.909Z,20.20
2022-09-12T08:45:37.734Z,20.17
2022-09-12T08:50:49.215Z,20.63
2022-09-12T08:55:54.694Z,20.03
2022-09-12T09:01:03.231Z,19.17
2022-09-12T09:06:09.835Z,19.52
2022-09-12T09:11:17.781Z,19.02
2022-09-12T09:16:25.077Z,18.80
2022-09-12T09:21:31.049Z,19.42
2022-09-12T09:26:38.399Z,19.27
2022-09-12T09:31:42.541Z,18.67
2022-09-12T09:36:49.640Z,18.60
2022-09-12T09:41:56.866Z,19.23
2022-09-12T09:47:00.844Z,18.17
2022-09-12T09:52:03.538Z,18.88
2022-09-12T09:57:06.070Z,17.88
2022-09-12T10:02:24.038Z,17.80
2022-09-12T10:07:27.317Z,17.63
2022-09-12T10:12:29.798Z,16.92
2022-09-12T10:17:40.697Z,15.68
2022-09-12T10:22:47.653Z,18.00
2022-09-12T10:27:53.984Z,16.30
2022-09-12T10:33:00.491Z,14.30
2022-09-12T10:38:04.477Z,13.80
2022-09-12T10:43:17.421Z,15.13
2022-09-12T10:48:26.145Z,12.68
2022-09-12T10:53:34.145Z,13.85
2022-09-12T10:58:48.855Z,11.70
2022-09-12T11:04:01.421Z,11.23
2022-09-12T11:14:22.078Z,9.90
2022-09-12T11:19:39.400Z,9.40
2022-09-12T11:24:48.133Z,9.13
2022-09-12T11:29:51.796Z,8.18
2022-09-12T11:34:59.083Z,7.70
2022-09-12T11:40:08.595Z,8.68
2022-09-12T11:45:14.607Z,5.65
2022-09-12T11:50:21.290Z,7.25
2022-09-12T11:55:27.094Z,5.80
2022-09-12T12:00:33.299Z,5.65
2022-09-12T12:05:41.956Z,4.68
2022-09-12T12:10:45.209Z,5.53
2022-09-12T12:15:49.409Z,6.32
2022-09-12T12:20:54.340Z,4.53
2022-09-12T12:25:57.730Z,4.60
2022-09-12T12:31:03.243Z,4.57
2022-09-12T12:36:08.846Z,6.45
2022-09-12T12:41:29.689Z,5.10
2022-09-12T12:46:32.183Z,4.50
2022-09-12T12:51:49.634Z,5.10
2022-09-12T12:57:01.260Z,4.07
2022-09-12T13:02:05.500Z,3.40
2022-09-12T13:07:11.931Z,4.18
2022-09-12T13:12:21.807Z,4.03
2022-09-12T13:17:27.044Z,3.33
2022-09-12T13:22:38.954Z,4.20
2022-09-12T13:27:57.003Z,4.33
2022-09-12T13:33:04.270Z,3.80
2022-09-12T13:38:10.039Z,4.10
2022-09-12T13:43:18.025Z,4.00
2022-09-12T13:48:22.392Z,4.13
2022-09-12T13:53:26.742Z,3.47
2022-09-12T13:58:31.188Z,3.00
2022-09-12T14:03:55.725Z,2.97
2022-09-12T14:09:01.369Z,2.80
2022-09-12T14:14:07.422Z,3.10
2022-09-12T14:19:10.217Z,3.10
2022-09-12T14:24:14.725Z,3.00
2022-09-12T14:29:18.630Z,3.85
2022-09-12T14:34:21.157Z,3.20
2022-09-12T14:39:25.930Z,3.28
2022-09-12T14:44:30.997Z,2.90
2022-09-12T14:49:35.755Z,2.83
2022-09-12T14:54:39.535Z,3.50
2022-09-12T14:59:43.682Z,3.50
2022-09-12T15:04:48.083Z,3.05
2022-09-12T15:09:51.251Z,3.05
2022-09-12T15:14:56.559Z,2.60
2022-09-12T15:19:59.206Z,2.63
2022-09-12T15:25:03.062Z,3.20
2022-09-12T15:30:07.355Z,3.13
2022-09-12T15:35:12.463Z,3.50
2022-09-12T15:40:15.167Z,3.35
2022-09-12T15:45:19.942Z,3.58
2022-09-12T15:50:22.756Z,3.47
2022-09-12T15:55:26.686Z,3.25
2022-09-12T16:00:31.269Z,4.18
2022-09-12T16:05:34.328Z,3.53
2022-09-12T16:10:36.649Z,3.75
2022-09-12T16:15:40.852Z,3.78
2022-09-12T16:20:44.310Z,3.53
2022-09-12T16:25:46.706Z,3.55
2022-09-12T16:30:57.067Z,3.55
2022-09-12T16:36:03.978Z,3.40
2022-09-12T16:41:07.675Z,3.55
2022-09-12T16:46:12.149Z,3.50
2022-09-12T16:51:14.600Z,4.57
2022-09-12T17:01:22.502Z,3.75
2022-09-12T17:06:25.816Z,4.00
2022-09-12T17:11:30.943Z,4.82
2022-09-12T17:16:35.289Z,5.68
2022-09-12T17:21:37.749Z,6.43
2022-09-12T17:26:40.237Z,6.65
2022-09-12T17:31:44.600Z,6.50
2022-09-12T17:36:48.351Z,7.22
2022-09-12T17:41:51.869Z,5.82
2022-09-12T17:46:55.646Z,4.80
2022-09-12T17:51:58.250Z,5.50
2022-09-12T17:57:00.681Z,5.47
2022-09-12T18:02:16.057Z,4.50
2022-09-12T18:07:18.999Z,4.03
2022-09-12T18:12:21.457Z,4.60
2022-09-12T18:17:25.240Z,4.60
2022-09-12T18:22:27.661Z,4.45
2022-09-12T18:27:30.070Z,5.00
2022-09-12T18:32:33.831Z,4.88
2022-09-12T18:37:36.207Z,5.07
2022-09-12T18:42:38.647Z,5.13
2022-09-12T18:47:42.474Z,4.45
2022-09-12T18:52:45.216Z,4.38
2022-09-12T18:57:47.840Z,4.63
2022-09-12T19:02:52.581Z,5.32
2022-09-12T19:07:54.963Z,4.72
2022-09-12T19:12:57.473Z,5.75
2022-09-12T19:18:01.186Z,5.97
2022-09-12T19:23:03.579Z,5.60
2022-09-12T19:28:06.009Z,5.05
2022-09-12T19:33:09.743Z,5.30
2022-09-12T19:38:12.498Z,5.05
2022-09-12T19:43:14.926Z,5.68
2022-09-12T19:48:18.797Z,6.30
2022-09-12T19:53:23.201Z,5.60
2022-09-12T19:58:25.694Z,5.55
2022-09-12T20:03:29.488Z,6.07
2022-09-12T20:08:32.021Z,6.65
2022-09-12T20:13:34.380Z,7.07
2022-09-12T20:18:38.233Z,6.47
2022-09-12T20:23:41.366Z,7.00
2022-09-12T20:33:51.705Z,7.90
2022-09-12T20:38:56.658Z,8.45
2022-09-12T20:43:59.532Z,8.48
2022-09-12T20:49:04.471Z,9.00
2022-09-12T20:54:07.890Z,8.70
2022-09-12T20:59:12.273Z,8.02
2022-09-12T21:04:16.516Z,8.23
2022-09-12T21:09:19.230Z,8.45
2022-09-12T21:14:21.694Z,10.07
2022-09-12T21:19:25.418Z,9.70
2022-09-12T21:24:27.795Z,9.55
2022-09-12T21:29:30.217Z,9.17
2022-09-12T21:34:33.953Z,10.05
2022-09-12T21:39:36.353Z,9.85
2022-09-12T21:44:38.710Z,9.93
2022-09-12T21:49:42.470Z,11.17
2022-09-12T21:54:44.846Z,10.43
2022-09-12T21:59:47.297Z,11.93
2022-09-12T22:04:51.995Z,12.10
2022-09-12T22:09:54.442Z,12.10
2022-09-12T22:14:57.030Z,12.30
2022-09-12T22:20:00.836Z,12.55
2022-09-12T22:25:03.207Z,12.75
2022-09-12T22:30:06.101Z,12.87
2022-09-12T22:35:10.270Z,12.75
2022-09-12T22:40:13.694Z,13.73
2022-09-12T22:45:16.625Z,13.55
2022-09-12T22:50:20.440Z,12.57
2022-09-12T22:55:22.866Z,13.27
2022-09-12T23:00:27.681Z,14.13
2022-09-12T23:05:31.517Z,14.23
2022-09-12T23:10:35.874Z,14.18
2022-09-12T23:15:38.340Z,15.32
2022-09-12T23:20:42.120Z,14.00
2022-09-12T23:25:44.540Z,14.43
2022-09-12T23:30:46.935Z,14.27
2022-09-12T23:35:50.686Z,15.32
2022-09-12T23:40:53.082Z,14.15
2022-09-12T23:45:55.561Z,15.17
2022-09-12T23:50:59.546Z,14.30
2022-09-12T23:56:02.169Z,14.52
